sensor_id;sensor_type;location;lat;lon;timestamp;pressure;altitude;pressure_sealevel;temperature;humidity
59375;BME280;45172;55.006;73.460;2023-05-12T00:00:17;100927.03;;;4.32;95.30
59375;BME280;45172;55.006;73.460;2023-05-12T00:02:43;100931.31;;;4.30;95.23
59375;BME280;45172;55.006;73.460;2023-05-12T00:05:10;100934.16;;;4.35;94.84
59375;BME280;45172;55.006;73.460;2023-05-12T00:07:36;100936.06;;;4.37;94.68
59375;BME280;45172;55.006;73.460;2023-05-12T00:10:02;100932.59;;;4.38;94.56
59375;BME280;45172;55.006;73.460;2023-05-12T00:12:28;100937.25;;;4.44;93.66
59375;BME280;45172;55.006;73.460;2023-05-12T00:14:54;100942.50;;;4.44;93.45
59375;BME280;45172;55.006;73.460;2023-05-12T00:17:20;100943.47;;;4.46;92.42
59375;BME280;45172;55.006;73.460;2023-05-12T00:19:46;100955.09;;;4.51;91.86
59375;BME280;45172;55.006;73.460;2023-05-12T00:22:13;100964.03;;;4.55;91.24
59375;BME280;45172;55.006;73.460;2023-05-12T00:24:41;100963.13;;;4.55;89.81
59375;BME280;45172;55.006;73.460;2023-05-12T00:27:07;100967.84;;;4.62;89.39
59375;BME280;45172;55.006;73.460;2023-05-12T00:29:33;100978.34;;;4.62;88.16
59375;BME280;45172;55.006;73.460;2023-05-12T00:31:59;100976.03;;;4.86;86.10
59375;BME280;45172;55.006;73.460;2023-05-12T00:34:28;100978.06;;;4.74;86.03
59375;BME280;45172;55.006;73.460;2023-05-12T00:36:55;100981.88;;;4.80;85.88
59375;BME280;45172;55.006;73.460;2023-05-12T00:39:21;100976.13;;;4.88;85.75
59375;BME280;45172;55.006;73.460;2023-05-12T00:41:53;100975.94;;;4.85;83.95
59375;BME280;45172;55.006;73.460;2023-05-12T00:44:19;100993.13;;;4.96;83.95
59375;BME280;45172;55.006;73.460;2023-05-12T00:46:45;100982.09;;;5.03;83.10
59375;BME280;45172;55.006;73.460;2023-05-12T00:49:11;100988.84;;;5.16;82.46
59375;BME280;45172;55.006;73.460;2023-05-12T00:51:38;101000.63;;;5.25;81.31
59375;BME280;45172;55.006;73.460;2023-05-12T00:54:05;100996.72;;;5.34;80.88
59375;BME280;45172;55.006;73.460;2023-05-12T00:56:31;100998.72;;;5.40;80.51
59375;BME280;45172;55.006;73.460;2023-05-12T00:59:07;101002.31;;;5.42;79.34
59375;BME280;45172;55.006;73.460;2023-05-12T01:01:33;101001.84;;;5.51;78.97
59375;BME280;45172;55.006;73.460;2023-05-12T01:04:01;101005.22;;;5.48;77.80
59375;BME280;45172;55.006;73.460;2023-05-12T01:08:54;101006.56;;;5.58;76.86
59375;BME280;45172;55.006;73.460;2023-05-12T01:11:20;101013.81;;;5.64;75.98
59375;BME280;45172;55.006;73.460;2023-05-12T01:13:47;101019.38;;;5.70;75.48
59375;BME280;45172;55.006;73.460;2023-05-12T01:16:14;101017.31;;;5.83;75.45
59375;BME280;45172;55.006;73.460;2023-05-12T01:18:42;101013.31;;;5.91;74.71
59375;BME280;45172;55.006;73.460;2023-05-12T01:21:15;101021.72;;;6.02;74.09
59375;BME280;45172;55.006;73.460;2023-05-12T01:23:47;101027.09;;;6.05;73.21
59375;BME280;45172;55.006;73.460;2023-05-12T01:26:14;101028.69;;;6.21;73.25
59375;BME280;45172;55.006;73.460;2023-05-12T01:28:40;101027.84;;;6.22;72.54
59375;BME280;45172;55.006;73.460;2023-05-12T01:31:07;101033.69;;;6.56;71.51
59375;BME280;45172;55.006;73.460;2023-05-12T01:33:34;101026.56;;;6.75;70.85
59375;BME280;45172;55.006;73.460;2023-05-12T01:36:01;101026.03;;;6.62;70.18
59375;BME280;45172;55.006;73.460;2023-05-12T01:38:27;101026.41;;;6.50;70.04
59375;BME280;45172;55.006;73.460;2023-05-12T01:40:53;101037.47;;;6.63;70.59
59375;BME280;45172;55.006;73.460;2023-05-12T01:43:19;101031.63;;;6.91;69.58
59375;BME280;45172;55.006;73.460;2023-05-12T01:45:46;101042.44;;;6.76;69.26
59375;BME280;45172;55.006;73.460;2023-05-12T01:48:12;101041.31;;;6.92;67.36
59375;BME280;45172;55.006;73.460;2023-05-12T01:50:38;101039.09;;;6.80;68.70
59375;BME280;45172;55.006;73.460;2023-05-12T01:53:04;101041.41;;;6.94;68.04
59375;BME280;45172;55.006;73.460;2023-05-12T01:55:30;101037.03;;;6.94;68.56
59375;BME280;45172;55.006;73.460;2023-05-12T01:57:56;101044.75;;;7.11;67.78
59375;BME280;45172;55.006;73.460;2023-05-12T02:00:22;101034.63;;;7.22;67.69
59375;BME280;45172;55.006;73.460;2023-05-12T02:02:48;101040.97;;;7.27;66.36
59375;BME280;45172;55.006;73.460;2023-05-12T02:05:14;101050.88;;;7.33;66.33
59375;BME280;45172;55.006;73.460;2023-05-12T02:07:40;101046.56;;;7.58;64.64
59375;BME280;45172;55.006;73.460;2023-05-12T02:10:07;101057.03;;;7.56;65.07
59375;BME280;45172;55.006;73.460;2023-05-12T02:12:34;101056.81;;;7.73;64.92
59375;BME280;45172;55.006;73.460;2023-05-12T02:15:00;101067.91;;;7.64;64.84
59375;BME280;45172;55.006;73.460;2023-05-12T02:17:26;101071.56;;;7.67;63.49
59375;BME280;45172;55.006;73.460;2023-05-12T02:19:53;101068.97;;;7.46;63.91
59375;BME280;45172;55.006;73.460;2023-05-12T02:22:19;101061.66;;;7.39;64.81
59375;BME280;45172;55.006;73.460;2023-05-12T02:24:45;101069.81;;;7.45;65.07
59375;BME280;45172;55.006;73.460;2023-05-12T02:27:11;101065.22;;;7.62;64.59
59375;BME280;45172;55.006;73.460;2023-05-12T02:29:37;101073.81;;;7.81;64.75
59375;BME280;45172;55.006;73.460;2023-05-12T02:32:04;101070.13;;;8.00;64.18
59375;BME280;45172;55.006;73.460;2023-05-12T02:34:31;101062.34;;;8.28;63.24
59375;BME280;45172;55.006;73.460;2023-05-12T02:36:57;101065.34;;;8.37;63.23
59375;BME280;45172;55.006;73.460;2023-05-12T02:39:23;101069.09;;;8.44;61.74
59375;BME280;45172;55.006;73.460;2023-05-12T02:41:49;101061.16;;;8.44;62.18
59375;BME280;45172;55.006;73.460;2023-05-12T02:44:16;101075.69;;;8.55;61.54
59375;BME280;45172;55.006;73.460;2023-05-12T02:46:42;101064.72;;;8.44;62.14
59375;BME280;45172;55.006;73.460;2023-05-12T02:49:08;101072.31;;;8.59;61.91
59375;BME280;45172;55.006;73.460;2023-05-12T02:51:34;101071.97;;;8.74;59.60
59375;BME280;45172;55.006;73.460;2023-05-12T02:54:01;101065.97;;;8.80;59.45
59375;BME280;45172;55.006;73.460;2023-05-12T02:56:27;101065.75;;;9.00;60.16
59375;BME280;45172;55.006;73.460;2023-05-12T02:58:53;101063.22;;;9.03;58.28
59375;BME280;45172;55.006;73.460;2023-05-12T03:01:19;101067.09;;;9.14;59.19
59375;BME280;45172;55.006;73.460;2023-05-12T03:03:46;101077.97;;;9.24;57.19
59375;BME280;45172;55.006;73.460;2023-05-12T03:06:11;101075.06;;;8.88;57.04
59375;BME280;45172;55.006;73.460;2023-05-12T03:08:38;101076.78;;;8.86;57.20
59375;BME280;45172;55.006;73.460;2023-05-12T03:11:04;101077.56;;;8.84;56.77
59375;BME280;45172;55.006;73.460;2023-05-12T03:13:30;101078.88;;;8.71;57.53
59375;BME280;45172;55.006;73.460;2023-05-12T03:15:56;101075.31;;;8.96;57.41
59375;BME280;45172;55.006;73.460;2023-05-12T03:18:26;101068.38;;;9.00;55.34
59375;BME280;45172;55.006;73.460;2023-05-12T03:20:53;101078.47;;;9.12;54.78
59375;BME280;45172;55.006;73.460;2023-05-12T03:23:19;101081.47;;;9.23;55.23
59375;BME280;45172;55.006;73.460;2023-05-12T03:25:46;101084.59;;;9.37;53.22
59375;BME280;45172;55.006;73.460;2023-05-12T03:28:12;101086.47;;;9.41;53.05
59375;BME280;45172;55.006;73.460;2023-05-12T03:30:38;101089.47;;;9.24;52.32
59375;BME280;45172;55.006;73.460;2023-05-12T03:33:04;101092.19;;;9.27;52.32
59375;BME280;45172;55.006;73.460;2023-05-12T03:35:30;101087.56;;;9.48;52.25
59375;BME280;45172;55.006;73.460;2023-05-12T03:37:56;101086.59;;;9.45;51.86
59375;BME280;45172;55.006;73.460;2023-05-12T03:40:22;101095.25;;;9.40;52.42
59375;BME280;45172;55.006;73.460;2023-05-12T03:42:48;101099.56;;;9.65;52.18
59375;BME280;45172;55.006;73.460;2023-05-12T03:45:14;101089.28;;;9.75;52.48
59375;BME280;45172;55.006;73.460;2023-05-12T03:47:40;101080.72;;;9.83;50.28
59375;BME280;45172;55.006;73.460;2023-05-12T03:50:07;101088.00;;;9.91;50.66
59375;BME280;45172;55.006;73.460;2023-05-12T03:52:33;101085.56;;;9.98;50.99
59375;BME280;45172;55.006;73.460;2023-05-12T03:54:58;101096.16;;;9.98;49.07
59375;BME280;45172;55.006;73.460;2023-05-12T03:57:25;101101.59;;;10.03;47.84
59375;BME280;45172;55.006;73.460;2023-05-12T03:59:51;101088.63;;;10.12;47.84
59375;BME280;45172;55.006;73.460;2023-05-12T04:02:17;101088.97;;;10.25;49.43
59375;BME280;45172;55.006;73.460;2023-05-12T04:04:43;101094.06;;;10.17;49.07
59375;BME280;45172;55.006;73.460;2023-05-12T04:07:10;101094.06;;;10.17;49.19
59375;BME280;45172;55.006;73.460;2023-05-12T04:09:36;101094.19;;;10.22;46.19
59375;BME280;45172;55.006;73.460;2023-05-12T04:12:02;101095.25;;;10.28;47.98
59375;BME280;45172;55.006;73.460;2023-05-12T04:14:28;101101.81;;;10.41;48.08
59375;BME280;45172;55.006;73.460;2023-05-12T04:16:54;101098.50;;;10.49;46.93
59375;BME280;45172;55.006;73.460;2023-05-12T04:19:21;101099.50;;;10.52;48.57
59375;BME280;45172;55.006;73.460;2023-05-12T04:21:47;101100.69;;;10.64;46.73
59375;BME280;45172;55.006;73.460;2023-05-12T04:24:13;101088.50;;;10.71;47.86
59375;BME280;45172;55.006;73.460;2023-05-12T04:26:39;101098.53;;;10.82;46.71
59375;BME280;45172;55.006;73.460;2023-05-12T04:29:05;101087.13;;;10.85;45.86
59375;BME280;45172;55.006;73.460;2023-05-12T04:31:31;101096.28;;;10.98;45.25
59375;BME280;45172;55.006;73.460;2023-05-12T04:33:57;101094.59;;;11.02;47.01
59375;BME280;45172;55.006;73.460;2023-05-12T04:36:23;101094.81;;;11.09;45.46
59375;BME280;45172;55.006;73.460;2023-05-12T04:38:49;101099.28;;;11.12;45.23
59375;BME280;45172;55.006;73.460;2023-05-12T04:41:16;101092.53;;;11.25;42.75
59375;BME280;45172;55.006;73.460;2023-05-12T04:43:42;101087.88;;;11.51;43.78
59375;BME280;45172;55.006;73.460;2023-05-12T04:46:08;101088.06;;;11.61;43.30
59375;BME280;45172;55.006;73.460;2023-05-12T04:48:34;101087.63;;;11.41;44.07
59375;BME280;45172;55.006;73.460;2023-05-12T04:51:00;101090.44;;;11.48;43.49
59375;BME280;45172;55.006;73.460;2023-05-12T04:53:26;101087.22;;;11.62;43.34
59375;BME280;45172;55.006;73.460;2023-05-12T04:55:53;101090.16;;;11.76;41.97
59375;BME280;45172;55.006;73.460;2023-05-12T04:58:20;101080.84;;;11.95;42.25
59375;BME280;45172;55.006;73.460;2023-05-12T05:00:46;101093.34;;;12.01;42.09
59375;BME280;45172;55.006;73.460;2023-05-12T05:03:12;101083.72;;;12.04;39.34
59375;BME280;45172;55.006;73.460;2023-05-12T05:05:38;101094.97;;;12.34;39.57
59375;BME280;45172;55.006;73.460;2023-05-12T05:08:04;101082.34;;;12.24;40.72
59375;BME280;45172;55.006;73.460;2023-05-12T05:10:31;101090.38;;;12.25;41.94
59375;BME280;45172;55.006;73.460;2023-05-12T05:12:57;101087.31;;;12.05;41.66
59375;BME280;45172;55.006;73.460;2023-05-12T05:15:22;101085.06;;;11.85;41.11
59375;BME280;45172;55.006;73.460;2023-05-12T05:17:49;101073.44;;;11.78;40.53
59375;BME280;45172;55.006;73.460;2023-05-12T05:20:15;101089.59;;;11.89;41.00
59375;BME280;45172;55.006;73.460;2023-05-12T05:22:42;101086.13;;;11.93;40.71
59375;BME280;45172;55.006;73.460;2023-05-12T05:25:08;101086.22;;;11.97;41.12
59375;BME280;45172;55.006;73.460;2023-05-12T05:27:34;101083.72;;;12.04;40.06
59375;BME280;45172;55.006;73.460;2023-05-12T05:30:01;101096.13;;;12.04;38.97
59375;BME280;45172;55.006;73.460;2023-05-12T05:32:27;101088.78;;;11.93;39.49
59375;BME280;45172;55.006;73.460;2023-05-12T05:34:54;101085.28;;;11.95;39.07
59375;BME280;45172;55.006;73.460;2023-05-12T05:37:20;101085.06;;;11.84;39.50
59375;BME280;45172;55.006;73.460;2023-05-12T05:39:46;101080.94;;;12.00;40.58
59375;BME280;45172;55.006;73.460;2023-05-12T05:42:12;101083.19;;;12.19;39.68
59375;BME280;45172;55.006;73.460;2023-05-12T05:44:38;101081.66;;;12.32;38.71
59375;BME280;45172;55.006;73.460;2023-05-12T05:47:04;101080.78;;;12.33;38.80
59375;BME280;45172;55.006;73.460;2023-05-12T05:49:30;101079.19;;;12.42;41.27
59375;BME280;45172;55.006;73.460;2023-05-12T05:51:56;101079.16;;;12.40;39.31
59375;BME280;45172;55.006;73.460;2023-05-12T05:54:23;101072.69;;;12.27;38.93
59375;BME280;45172;55.006;73.460;2023-05-12T05:56:50;101074.72;;;12.41;39.47
59375;BME280;45172;55.006;73.460;2023-05-12T05:59:16;101078.47;;;12.51;39.47
59375;BME280;45172;55.006;73.460;2023-05-12T06:01:42;101071.50;;;12.57;38.88
59375;BME280;45172;55.006;73.460;2023-05-12T06:04:10;101078.13;;;12.80;39.09
59375;BME280;45172;55.006;73.460;2023-05-12T06:06:36;101069.47;;;12.93;37.53
59375;BME280;45172;55.006;73.460;2023-05-12T06:09:02;101074.78;;;12.92;38.70
59375;BME280;45172;55.006;73.460;2023-05-12T06:11:32;101072.88;;;12.84;38.43
59375;BME280;45172;55.006;73.460;2023-05-12T06:13:58;101078.16;;;12.83;38.35
59375;BME280;45172;55.006;73.460;2023-05-12T06:16:25;101064.06;;;12.88;36.12
59375;BME280;45172;55.006;73.460;2023-05-12T06:18:51;101070.34;;;12.91;36.41
59375;BME280;45172;55.006;73.460;2023-05-12T06:21:17;101072.25;;;12.99;37.77
59375;BME280;45172;55.006;73.460;2023-05-12T06:23:43;101069.66;;;13.02;35.96
59375;BME280;45172;55.006;73.460;2023-05-12T06:26:09;101063.66;;;13.16;36.38
59375;BME280;45172;55.006;73.460;2023-05-12T06:28:36;101066.66;;;13.36;36.56
59375;BME280;45172;55.006;73.460;2023-05-12T06:31:02;101060.34;;;13.31;37.32
59375;BME280;45172;55.006;73.460;2023-05-12T06:33:31;101065.59;;;13.28;36.59
59375;BME280;45172;55.006;73.460;2023-05-12T06:35:57;101054.19;;;13.34;36.88
59375;BME280;45172;55.006;73.460;2023-05-12T06:38:23;101057.75;;;13.36;34.42
59375;BME280;45172;55.006;73.460;2023-05-12T06:40:49;101067.56;;;13.38;35.40
59375;BME280;45172;55.006;73.460;2023-05-12T06:43:20;101059.44;;;13.31;35.34
59375;BME280;45172;55.006;73.460;2023-05-12T06:45:46;101056.78;;;13.31;35.76
59375;BME280;45172;55.006;73.460;2023-05-12T06:48:12;101050.94;;;13.52;35.05
59375;BME280;45172;55.006;73.460;2023-05-12T06:50:38;101039.47;;;13.56;36.15
59375;BME280;45172;55.006;73.460;2023-05-12T06:53:04;101051.25;;;13.75;35.28
59375;BME280;45172;55.006;73.460;2023-05-12T06:55:33;101036.13;;;13.73;34.45
59375;BME280;45172;55.006;73.460;2023-05-12T06:57:59;101038.06;;;13.84;35.30
59375;BME280;45172;55.006;73.460;2023-05-12T07:00:35;101040.91;;;14.00;36.41
59375;BME280;45172;55.006;73.460;2023-05-12T07:03:00;101038.41;;;14.09;35.24
59375;BME280;45172;55.006;73.460;2023-05-12T07:05:27;101039.13;;;13.99;34.52
59375;BME280;45172;55.006;73.460;2023-05-12T07:07:53;101043.72;;;14.11;34.08
59375;BME280;45172;55.006;73.460;2023-05-12T07:10:19;101039.25;;;14.08;35.76
59375;BME280;45172;55.006;73.460;2023-05-12T07:12:45;101041.97;;;14.13;33.53
59375;BME280;45172;55.006;73.460;2023-05-12T07:15:12;101036.69;;;14.16;34.23
59375;BME280;45172;55.006;73.460;2023-05-12T07:17:38;101040.31;;;14.23;35.92
59375;BME280;45172;55.006;73.460;2023-05-12T07:20:04;101032.53;;;14.43;34.36
59375;BME280;45172;55.006;73.460;2023-05-12T07:22:32;101030.06;;;14.62;34.87
59375;BME280;45172;55.006;73.460;2023-05-12T07:24:57;101013.91;;;14.46;33.46
59375;BME280;45172;55.006;73.460;2023-05-12T07:27:23;101026.50;;;14.63;34.43
59375;BME280;45172;55.006;73.460;2023-05-12T07:29:50;101022.00;;;14.56;33.45
59375;BME280;45172;55.006;73.460;2023-05-12T07:32:16;101022.84;;;14.53;32.44
59375;BME280;45172;55.006;73.460;2023-05-12T07:34:42;101015.91;;;14.69;32.72
59375;BME280;45172;55.006;73.460;2023-05-12T07:37:08;101015.22;;;14.87;33.03
59375;BME280;45172;55.006;73.460;2023-05-12T07:39:34;101000.03;;;14.78;34.37
59375;BME280;45172;55.006;73.460;2023-05-12T07:42:00;101009.88;;;14.89;32.82
59375;BME280;45172;55.006;73.460;2023-05-12T07:44:26;101016.78;;;14.70;32.39
59375;BME280;45172;55.006;73.460;2023-05-12T07:46:53;101016.69;;;14.59;31.96
59375;BME280;45172;55.006;73.460;2023-05-12T07:49:19;101007.88;;;14.68;31.06
59375;BME280;45172;55.006;73.460;2023-05-12T07:51:46;101007.06;;;14.73;30.47
59375;BME280;45172;55.006;73.460;2023-05-12T07:54:12;101001.06;;;14.95;32.20
59375;BME280;45172;55.006;73.460;2023-05-12T07:56:38;100993.94;;;14.97;31.10
59375;BME280;45172;55.006;73.460;2023-05-12T07:59:04;100998.41;;;14.99;31.30
59375;BME280;45172;55.006;73.460;2023-05-12T08:01:31;101003.63;;;14.87;30.73
59375;BME280;45172;55.006;73.460;2023-05-12T08:03:56;100992.97;;;14.90;30.75
59375;BME280;45172;55.006;73.460;2023-05-12T08:06:23;100990.28;;;14.85;31.32
59375;BME280;45172;55.006;73.460;2023-05-12T08:08:49;100976.88;;;14.76;30.08
59375;BME280;45172;55.006;73.460;2023-05-12T08:11:16;100977.75;;;14.75;29.58
59375;BME280;45172;55.006;73.460;2023-05-12T08:13:42;100985.78;;;14.78;30.96
59375;BME280;45172;55.006;73.460;2023-05-12T08:16:08;100972.47;;;14.79;32.18
59375;BME280;45172;55.006;73.460;2023-05-12T08:18:34;100976.97;;;14.84;30.62
59375;BME280;45172;55.006;73.460;2023-05-12T08:21:00;100978.72;;;14.83;29.05
59375;BME280;45172;55.006;73.460;2023-05-12T08:23:27;100977.09;;;15.04;30.06
59375;BME280;45172;55.006;73.460;2023-05-12T08:25:53;100981.63;;;15.19;30.12
59375;BME280;45172;55.006;73.460;2023-05-12T08:28:19;100980.78;;;15.23;30.60
59375;BME280;45172;55.006;73.460;2023-05-12T08:30:45;101000.25;;;15.13;31.15
59375;BME280;45172;55.006;73.460;2023-05-12T08:33:11;100981.50;;;14.99;29.57
59375;BME280;45172;55.006;73.460;2023-05-12T08:35:37;100974.50;;;15.15;30.70
59375;BME280;45172;55.006;73.460;2023-05-12T08:38:04;100980.75;;;15.20;28.86
59375;BME280;45172;55.006;73.460;2023-05-12T08:40:40;100977.16;;;15.16;30.00
59375;BME280;45172;55.006;73.460;2023-05-12T08:43:24;100978.16;;;15.29;30.46
59375;BME280;45172;55.006;73.460;2023-05-12T08:45:55;100975.53;;;15.34;30.82
59375;BME280;45172;55.006;73.460;2023-05-12T08:48:26;100985.25;;;15.29;30.07
59375;BME280;45172;55.006;73.460;2023-05-12T08:50:54;100996.03;;;15.44;31.48
59375;BME280;45172;55.006;73.460;2023-05-12T08:53:23;101002.31;;;15.54;29.87
59375;BME280;45172;55.006;73.460;2023-05-12T08:55:50;100989.91;;;15.64;29.96
59375;BME280;45172;55.006;73.460;2023-05-12T08:58:17;100990.78;;;15.65;28.70
59375;BME280;45172;55.006;73.460;2023-05-12T09:00:43;100992.50;;;15.48;29.60
59375;BME280;45172;55.006;73.460;2023-05-12T09:03:11;100993.34;;;15.41;29.04
59375;BME280;45172;55.006;73.460;2023-05-12T09:05:39;100999.66;;;15.54;30.19
59375;BME280;45172;55.006;73.460;2023-05-12T09:08:08;100988.09;;;15.55;29.23
59375;BME280;45172;55.006;73.460;2023-05-12T09:10:35;100999.72;;;15.73;29.35
59375;BME280;45172;55.006;73.460;2023-05-12T09:13:05;100992.63;;;15.77;29.22
59375;BME280;45172;55.006;73.460;2023-05-12T09:15:38;100992.75;;;16.01;29.76
59375;BME280;45172;55.006;73.460;2023-05-12T09:18:06;100999.91;;;16.12;27.99
59375;BME280;45172;55.006;73.460;2023-05-12T09:20:32;101004.38;;;16.16;27.69
59375;BME280;45172;55.006;73.460;2023-05-12T09:23:19;100995.41;;;16.01;27.71
59375;BME280;45172;55.006;73.460;2023-05-12T09:25:57;100993.69;;;16.18;27.83
59375;BME280;45172;55.006;73.460;2023-05-12T09:28:35;100993.66;;;16.05;28.35
59375;BME280;45172;55.006;73.460;2023-05-12T09:31:12;100990.97;;;15.99;28.34
59375;BME280;45172;55.006;73.460;2023-05-12T09:33:38;100994.56;;;16.02;27.11
59375;BME280;45172;55.006;73.460;2023-05-12T09:36:05;100984.75;;;16.12;26.79
59375;BME280;45172;55.006;73.460;2023-05-12T09:38:31;100980.19;;;15.89;25.99
59375;BME280;45172;55.006;73.460;2023-05-12T09:40:57;100987.38;;;15.92;26.73
59375;BME280;45172;55.006;73.460;2023-05-12T09:43:23;100980.25;;;15.91;26.07
59375;BME280;45172;55.006;73.460;2023-05-12T09:45:49;100982.03;;;15.94;26.63
59375;BME280;45172;55.006;73.460;2023-05-12T09:48:15;100978.56;;;16.18;27.71
59375;BME280;45172;55.006;73.460;2023-05-12T09:53:10;100983.00;;;16.22;26.85
59375;BME280;45172;55.006;73.460;2023-05-12T09:55:36;100982.13;;;16.23;27.25
59375;BME280;45172;55.006;73.460;2023-05-12T09:58:08;100991.91;;;16.12;26.96
59375;BME280;45172;55.006;73.460;2023-05-12T10:00:36;100993.69;;;16.21;27.15
59375;BME280;45172;55.006;73.460;2023-05-12T10:03:15;100979.44;;;16.23;25.82
59375;BME280;45172;55.006;73.460;2023-05-12T10:05:56;100991.84;;;15.92;25.10
59375;BME280;45172;55.006;73.460;2023-05-12T10:09:03;100984.63;;;15.78;27.21
59375;BME280;45172;55.006;73.460;2023-05-12T10:11:31;100982.88;;;15.83;27.86
59375;BME280;45172;55.006;73.460;2023-05-12T10:13:58;100987.38;;;15.94;26.66
59375;BME280;45172;55.006;73.460;2023-05-12T10:16:26;100973.13;;;15.93;26.48
59375;BME280;45172;55.006;73.460;2023-05-12T10:18:53;100983.72;;;15.71;26.99
59375;BME280;45172;55.006;73.460;2023-05-12T10:21:20;100980.16;;;15.74;26.89
59375;BME280;45172;55.006;73.460;2023-05-12T10:23:46;100963.19;;;15.63;26.80
59375;BME280;45172;55.006;73.460;2023-05-12T10:26:13;100966.78;;;15.66;26.29
59375;BME280;45172;55.006;73.460;2023-05-12T10:28:41;100964.91;;;15.53;27.48
59375;BME280;45172;55.006;73.460;2023-05-12T10:31:09;100963.09;;;15.38;26.28
59375;BME280;45172;55.006;73.460;2023-05-12T10:33:35;100973.75;;;15.36;27.07
59375;BME280;45172;55.006;73.460;2023-05-12T10:36:01;100958.56;;;15.27;26.48
59375;BME280;45172;55.006;73.460;2023-05-12T10:38:34;100963.84;;;15.15;28.35
59375;BME280;45172;55.006;73.460;2023-05-12T10:41:01;100969.03;;;14.98;27.41
59375;BME280;45172;55.006;73.460;2023-05-12T10:43:38;100973.59;;;15.13;27.63
59375;BME280;45172;55.006;73.460;2023-05-12T10:49:09;100967.38;;;15.15;26.17
59375;BME280;45172;55.006;73.460;2023-05-12T10:54:06;100974.13;;;14.68;27.70
59375;BME280;45172;55.006;73.460;2023-05-12T10:59:14;100977.81;;;14.81;27.15
59375;BME280;45172;55.006;73.460;2023-05-12T11:04:38;100979.84;;;15.21;26.94
59375;BME280;45172;55.006;73.460;2023-05-12T11:07:08;100979.16;;;15.47;26.52
59375;BME280;45172;55.006;73.460;2023-05-12T11:09:37;100976.50;;;15.56;27.05
59375;BME280;45172;55.006;73.460;2023-05-12T11:12:07;100988.97;;;15.57;26.24
59375;BME280;45172;55.006;73.460;2023-05-12T11:14:34;100974.72;;;15.58;25.34
59375;BME280;45172;55.006;73.460;2023-05-12T11:17:01;100966.78;;;15.71;25.82
59375;BME280;45172;55.006;73.460;2023-05-12T11:19:27;100969.44;;;15.65;25.91
59375;BME280;45172;55.006;73.460;2023-05-12T11:21:53;100976.50;;;15.52;26.51
59375;BME280;45172;55.006;73.460;2023-05-12T11:24:22;100975.56;;;15.45;26.81
59375;BME280;45172;55.006;73.460;2023-05-12T11:26:48;100981.78;;;15.42;26.34
59375;BME280;45172;55.006;73.460;2023-05-12T11:29:17;100977.28;;;15.30;26.33
59375;BME280;45172;55.006;73.460;2023-05-12T11:31:48;100979.06;;;15.36;26.18
59375;BME280;45172;55.006;73.460;2023-05-12T11:34:14;100973.75;;;15.39;26.66
59375;BME280;45172;55.006;73.460;2023-05-12T11:36:42;100981.91;;;15.67;25.43
59375;BME280;45172;55.006;73.460;2023-05-12T11:39:17;100974.78;;;15.66;25.82
59375;BME280;45172;55.006;73.460;2023-05-12T11:41:44;100980.16;;;15.79;26.34
59375;BME280;45172;55.006;73.460;2023-05-12T11:44:18;100978.34;;;15.70;25.82
59375;BME280;45172;55.006;73.460;2023-05-12T11:49:24;100982.75;;;15.55;24.47
59375;BME280;45172;55.006;73.460;2023-05-12T11:51:52;100968.34;;;15.28;24.90
59375;BME280;45172;55.006;73.460;2023-05-12T11:54:19;100972.81;;;15.32;25.08
59375;BME280;45172;55.006;73.460;2023-05-12T11:56:50;100970.13;;;15.31;25.69
59375;BME280;45172;55.006;73.460;2023-05-12T11:59:33;100972.75;;;15.17;25.03
59375;BME280;45172;55.006;73.460;2023-05-12T12:02:01;100968.31;;;15.17;26.48
59375;BME280;45172;55.006;73.460;2023-05-12T12:06:57;100961.22;;;15.27;26.61
59375;BME280;45172;55.006;73.460;2023-05-12T12:09:37;100960.41;;;15.39;24.85
59375;BME280;45172;55.006;73.460;2023-05-12T12:12:09;100969.34;;;15.47;25.46
59375;BME280;45172;55.006;73.460;2023-05-12T12:14:36;100952.50;;;15.61;25.68
59375;BME280;45172;55.006;73.460;2023-05-12T12:17:06;100943.59;;;15.54;25.52
59375;BME280;45172;55.006;73.460;2023-05-12T12:19:31;100949.69;;;15.31;25.77
59375;BME280;45172;55.006;73.460;2023-05-12T12:21:57;100947.13;;;15.52;25.41
59375;BME280;45172;55.006;73.460;2023-05-12T12:24:24;100942.75;;;15.66;25.76
59375;BME280;45172;55.006;73.460;2023-05-12T12:26:51;100947.25;;;15.87;25.51
59375;BME280;45172;55.006;73.460;2023-05-12T12:29:17;100948.22;;;15.97;24.31
59375;BME280;45172;55.006;73.460;2023-05-12T12:31:43;100956.16;;;15.89;24.25
59375;BME280;45172;55.006;73.460;2023-05-12T12:34:09;100950.88;;;15.96;24.03
59375;BME280;45172;55.006;73.460;2023-05-12T12:36:35;100951.78;;;16.13;25.09
59375;BME280;45172;55.006;73.460;2023-05-12T12:39:02;100949.16;;;16.27;24.28
59375;BME280;45172;55.006;73.460;2023-05-12T12:41:29;100955.34;;;15.98;24.13
59375;BME280;45172;55.006;73.460;2023-05-12T12:43:55;100936.63;;;15.94;23.84
59375;BME280;45172;55.006;73.460;2023-05-12T12:46:22;100949.13;;;16.04;24.47
59375;BME280;45172;55.006;73.460;2023-05-12T12:48:48;100942.91;;;16.11;24.25
59375;BME280;45172;55.006;73.460;2023-05-12T12:51:14;100942.88;;;16.00;23.63
59375;BME280;45172;55.006;73.460;2023-05-12T12:53:40;100948.25;;;16.21;23.58
59375;BME280;45172;55.006;73.460;2023-05-12T12:56:08;100946.50;;;16.55;23.95
59375;BME280;45172;55.006;73.460;2023-05-12T12:58:34;100943.81;;;16.96;23.58
59375;BME280;45172;55.006;73.460;2023-05-12T13:01:00;100950.06;;;16.89;22.18
59375;BME280;45172;55.006;73.460;2023-05-12T13:03:27;100938.50;;;16.63;22.72